Campo di Volo Always

IT-0403 · Friuli Venezia Giulia, 意大利

罗盘
风向 的 风向 010° Campo di Volo Always 17/35
风: 4 kt, 2 beaufort

4 kt

1 kt
改变
0 ft 1.000 2.000 3.000 4.000 5.000
Cloud Cloud
FEW 600
Cloud Cloud Cloud Cloud
SCT 3.000
Cloud Cloud Cloud Cloud Cloud Cloud
BKN 4.500
METAR LIPI 020955Z 01004KT 7000 -RA FEW006 SCT030 BKN045 11/09 Q1010

METAR Campo di Volo Always - IT-0403

Campo di Volo Always是,意大利中的小机场。 该机场位于纬度46,13347和经度13,27827。 该机场有一条跑道: 17/35. 这个机场没有ICAO代码,我们使用IT-0403作为参考。 机场在Milano FIR中。

该航空气象观测是针对Rivolto Air Base在2024年3月2日 10:55, 当地时间进行的。

机场观察

风向为010°,速度为4 kt。

可见度为7 km。

有几云在600 ft的高度, 疏云,零星散落的云朵在3.000 ft的高度 和 碎云在4.500 ft的高度。 破损或更高的上限为4.500 ft。

当前天气为光 雨。 温度和风寒是11 °C。 露点为9 °C,相对湿度为88%。 海平面上的气压为1010 hPa (QNH)。

白天

今天,太阳从06:42升起,在17:54降落。 这适用于Campo di Volo Always,世界夏令时可能有所不同。 当地时间与世界标准时间之间的时差为+1 小时。 当前,没有夏令时有效。

公司介绍

我们没有关于这个机场的公司信息。

体会

到Vliegles.nl去找飞行课程,跳伞和其他飞行体验。 浏览页面,了解Campo di Volo Always附近所有可用的活动。 你也可以使用搜索功能来寻找你所在地附近的特定飞行课程、跳伞或其他飞行体验。

跑道

Id 标题 侧风 逆风 侧风 %
17/35 174°-354° 1 kt 4 kt 28 %

逆风成分最大的方向会被突出显示,并用于横风计算。 这并不一定意味着这个方向在使用。

乌云

600 ft FEW 几云
3.000 ft SCT 疏云,零星散落的云朵
4.500 ft BKN 碎云

温度 & 天气

天气 光 雨
温度 11 °C
露点 9 °C
相对湿度 88%
Kp-index 0 (0-9)

白天

日出
06:43
中午
12:19
日落
17:55 (6:37)

小工具

你想在你的网站上有一个关于Campo di Volo Always的当前航空天气(METAR)的小部件吗?

显示HTML代码
?>